sensor_id;sensor_type;location;lat;lon;timestamp;P1;durP1;ratioP1;P2;durP2;ratioP2
52136;SDS011;69622;49.570;10.986;2023-04-30T00:02:00;14.43;;;8.18;;
52136;SDS011;69622;49.570;10.986;2023-04-30T00:08:11;10.15;;;7.45;;
52136;SDS011;69622;49.570;10.986;2023-04-30T00:11:12;12.30;;;7.35;;
52136;SDS011;69622;49.570;10.986;2023-04-30T00:14:13;11.88;;;7.28;;
52136;SDS011;69622;49.570;10.986;2023-04-30T00:17:15;12.18;;;7.78;;
52136;SDS011;69622;49.570;10.986;2023-04-30T00:20:17;11.35;;;7.65;;
52136;SDS011;69622;49.570;10.986;2023-04-30T00:23:18;10.55;;;8.02;;
52136;SDS011;69622;49.570;10.986;2023-04-30T00:26:20;11.75;;;8.13;;
52136;SDS011;69622;49.570;10.986;2023-04-30T00:29:21;10.57;;;8.13;;
52136;SDS011;69622;49.570;10.986;2023-04-30T00:32:23;11.52;;;7.68;;
52136;SDS011;69622;49.570;10.986;2023-04-30T00:35:24;10.15;;;7.85;;
52136;SDS011;69622;49.570;10.986;2023-04-30T00:38:25;11.55;;;7.75;;
52136;SDS011;69622;49.570;10.986;2023-04-30T00:41:27;12.43;;;7.30;;
52136;SDS011;69622;49.570;10.986;2023-04-30T00:44:30;10.73;;;7.68;;
52136;SDS011;69622;49.570;10.986;2023-04-30T00:47:31;10.80;;;7.88;;
52136;SDS011;69622;49.570;10.986;2023-04-30T00:50:34;10.23;;;7.13;;
52136;SDS011;69622;49.570;10.986;2023-04-30T00:53:37;8.45;;;6.88;;
52136;SDS011;69622;49.570;10.986;2023-04-30T00:56:40;10.10;;;6.78;;
52136;SDS011;69622;49.570;10.986;2023-04-30T00:59:41;9.70;;;7.60;;
52136;SDS011;69622;49.570;10.986;2023-04-30T01:02:43;11.27;;;7.80;;
52136;SDS011;69622;49.570;10.986;2023-04-30T01:05:44;9.48;;;6.93;;
52136;SDS011;69622;49.570;10.986;2023-04-30T01:08:46;9.10;;;6.90;;
52136;SDS011;69622;49.570;10.986;2023-04-30T01:11:55;9.85;;;7.63;;
52136;SDS011;69622;49.570;10.986;2023-04-30T01:15:16;10.48;;;7.07;;
52136;SDS011;69622;49.570;10.986;2023-04-30T01:18:32;9.40;;;7.47;;
52136;SDS011;69622;49.570;10.986;2023-04-30T01:21:49;10.23;;;7.93;;
52136;SDS011;69622;49.570;10.986;2023-04-30T01:28:17;10.40;;;7.45;;
52136;SDS011;69622;49.570;10.986;2023-04-30T01:31:20;11.02;;;8.00;;
52136;SDS011;69622;49.570;10.986;2023-04-30T01:34:24;13.35;;;7.82;;
52136;SDS011;69622;49.570;10.986;2023-04-30T01:37:30;10.13;;;7.90;;
52136;SDS011;69622;49.570;10.986;2023-04-30T01:40:47;11.50;;;8.48;;
52136;SDS011;69622;49.570;10.986;2023-04-30T01:44:05;11.25;;;7.93;;
52136;SDS011;69622;49.570;10.986;2023-04-30T01:50:41;11.52;;;8.25;;
52136;SDS011;69622;49.570;10.986;2023-04-30T01:53:47;14.30;;;9.15;;
52136;SDS011;69622;49.570;10.986;2023-04-30T01:57:12;10.40;;;7.85;;
52136;SDS011;69622;49.570;10.986;2023-04-30T02:00:18;10.07;;;7.93;;
52136;SDS011;69622;49.570;10.986;2023-04-30T02:03:19;11.00;;;7.97;;
52136;SDS011;69622;49.570;10.986;2023-04-30T02:06:21;13.95;;;8.13;;
52136;SDS011;69622;49.570;10.986;2023-04-30T02:09:28;11.65;;;8.32;;
52136;SDS011;69622;49.570;10.986;2023-04-30T02:12:29;13.60;;;8.75;;
52136;SDS011;69622;49.570;10.986;2023-04-30T02:15:30;10.93;;;8.68;;
52136;SDS011;69622;49.570;10.986;2023-04-30T02:18:32;12.07;;;8.38;;
52136;SDS011;69622;49.570;10.986;2023-04-30T02:21:33;11.65;;;8.25;;
52136;SDS011;69622;49.570;10.986;2023-04-30T02:24:35;13.90;;;8.93;;
52136;SDS011;69622;49.570;10.986;2023-04-30T02:27:36;9.70;;;7.90;;
52136;SDS011;69622;49.570;10.986;2023-04-30T02:30:38;11.85;;;8.45;;
52136;SDS011;69622;49.570;10.986;2023-04-30T02:33:39;13.02;;;9.75;;
52136;SDS011;69622;49.570;10.986;2023-04-30T02:36:41;13.05;;;8.75;;
52136;SDS011;69622;49.570;10.986;2023-04-30T02:39:42;12.45;;;8.25;;
52136;SDS011;69622;49.570;10.986;2023-04-30T02:42:44;12.88;;;9.02;;
52136;SDS011;69622;49.570;10.986;2023-04-30T02:45:45;12.77;;;9.00;;
52136;SDS011;69622;49.570;10.986;2023-04-30T02:48:46;13.90;;;9.27;;
52136;SDS011;69622;49.570;10.986;2023-04-30T02:51:48;12.10;;;9.60;;
52136;SDS011;69622;49.570;10.986;2023-04-30T02:54:49;14.82;;;9.90;;
52136;SDS011;69622;49.570;10.986;2023-04-30T02:57:51;13.43;;;9.13;;
52136;SDS011;69622;49.570;10.986;2023-04-30T03:00:52;12.98;;;9.70;;
52136;SDS011;69622;49.570;10.986;2023-04-30T03:03:53;12.77;;;9.70;;
52136;SDS011;69622;49.570;10.986;2023-04-30T03:06:55;13.60;;;9.45;;
52136;SDS011;69622;49.570;10.986;2023-04-30T03:09:56;13.68;;;9.88;;
52136;SDS011;69622;49.570;10.986;2023-04-30T03:12:58;13.63;;;9.40;;
52136;SDS011;69622;49.570;10.986;2023-04-30T03:15:59;16.48;;;10.05;;
52136;SDS011;69622;49.570;10.986;2023-04-30T03:19:02;13.15;;;10.02;;
52136;SDS011;69622;49.570;10.986;2023-04-30T03:22:03;13.70;;;10.35;;
52136;SDS011;69622;49.570;10.986;2023-04-30T03:25:04;13.68;;;10.48;;
52136;SDS011;69622;49.570;10.986;2023-04-30T03:28:06;11.90;;;9.73;;
52136;SDS011;69622;49.570;10.986;2023-04-30T03:31:08;12.07;;;9.23;;
52136;SDS011;69622;49.570;10.986;2023-04-30T03:34:09;13.20;;;9.77;;
52136;SDS011;69622;49.570;10.986;2023-04-30T03:37:11;13.50;;;9.38;;
52136;SDS011;69622;49.570;10.986;2023-04-30T03:40:12;13.52;;;9.30;;
52136;SDS011;69622;49.570;10.986;2023-04-30T03:43:14;12.55;;;9.38;;
52136;SDS011;69622;49.570;10.986;2023-04-30T03:46:15;13.95;;;10.65;;
52136;SDS011;69622;49.570;10.986;2023-04-30T03:49:17;11.98;;;8.80;;
52136;SDS011;69622;49.570;10.986;2023-04-30T03:52:18;13.52;;;10.18;;
52136;SDS011;69622;49.570;10.986;2023-04-30T03:55:19;13.43;;;10.27;;
52136;SDS011;69622;49.570;10.986;2023-04-30T03:58:21;12.07;;;8.65;;
52136;SDS011;69622;49.570;10.986;2023-04-30T04:01:22;14.85;;;9.43;;
52136;SDS011;69622;49.570;10.986;2023-04-30T04:04:24;12.73;;;10.27;;
52136;SDS011;69622;49.570;10.986;2023-04-30T04:07:25;16.42;;;10.38;;
52136;SDS011;69622;49.570;10.986;2023-04-30T04:10:27;17.60;;;10.40;;
52136;SDS011;69622;49.570;10.986;2023-04-30T04:13:28;15.80;;;10.32;;
52136;SDS011;69622;49.570;10.986;2023-04-30T04:16:30;14.68;;;10.07;;
52136;SDS011;69622;49.570;10.986;2023-04-30T04:19:31;14.48;;;9.88;;
52136;SDS011;69622;49.570;10.986;2023-04-30T04:22:32;12.32;;;9.57;;
52136;SDS011;69622;49.570;10.986;2023-04-30T04:25:34;15.00;;;9.93;;
52136;SDS011;69622;49.570;10.986;2023-04-30T04:28:35;18.08;;;10.60;;
52136;SDS011;69622;49.570;10.986;2023-04-30T04:31:38;15.77;;;10.07;;
52136;SDS011;69622;49.570;10.986;2023-04-30T04:34:41;15.93;;;11.10;;
52136;SDS011;69622;49.570;10.986;2023-04-30T04:37:43;17.65;;;11.90;;
52136;SDS011;69622;49.570;10.986;2023-04-30T04:40:51;14.48;;;11.02;;
52136;SDS011;69622;49.570;10.986;2023-04-30T04:43:53;17.77;;;11.02;;
52136;SDS011;69622;49.570;10.986;2023-04-30T04:46:56;15.90;;;10.43;;
52136;SDS011;69622;49.570;10.986;2023-04-30T04:49:58;15.60;;;10.95;;
52136;SDS011;69622;49.570;10.986;2023-04-30T04:53:00;15.23;;;10.85;;
52136;SDS011;69622;49.570;10.986;2023-04-30T04:56:02;15.15;;;10.77;;
52136;SDS011;69622;49.570;10.986;2023-04-30T04:59:03;14.85;;;9.75;;
52136;SDS011;69622;49.570;10.986;2023-04-30T05:02:05;14.20;;;10.27;;
52136;SDS011;69622;49.570;10.986;2023-04-30T05:05:06;25.58;;;10.35;;
52136;SDS011;69622;49.570;10.986;2023-04-30T05:08:08;15.52;;;10.20;;
52136;SDS011;69622;49.570;10.986;2023-04-30T05:11:10;17.33;;;10.25;;
52136;SDS011;69622;49.570;10.986;2023-04-30T05:14:15;15.25;;;10.13;;
52136;SDS011;69622;49.570;10.986;2023-04-30T05:17:16;17.83;;;10.25;;
52136;SDS011;69622;49.570;10.986;2023-04-30T05:20:17;15.85;;;10.60;;
52136;SDS011;69622;49.570;10.986;2023-04-30T05:23:19;16.63;;;10.43;;
52136;SDS011;69622;49.570;10.986;2023-04-30T05:26:20;15.05;;;10.45;;
52136;SDS011;69622;49.570;10.986;2023-04-30T05:29:23;17.38;;;11.07;;
52136;SDS011;69622;49.570;10.986;2023-04-30T05:32:25;14.30;;;10.05;;
52136;SDS011;69622;49.570;10.986;2023-04-30T05:35:27;16.23;;;10.75;;
52136;SDS011;69622;49.570;10.986;2023-04-30T05:38:30;17.48;;;11.52;;
52136;SDS011;69622;49.570;10.986;2023-04-30T05:41:31;14.07;;;9.82;;
52136;SDS011;69622;49.570;10.986;2023-04-30T05:44:33;14.00;;;10.02;;
52136;SDS011;69622;49.570;10.986;2023-04-30T05:47:34;12.30;;;9.50;;
52136;SDS011;69622;49.570;10.986;2023-04-30T05:50:35;12.75;;;9.55;;
52136;SDS011;69622;49.570;10.986;2023-04-30T05:53:37;16.88;;;10.68;;
52136;SDS011;69622;49.570;10.986;2023-04-30T05:56:38;14.73;;;10.48;;
52136;SDS011;69622;49.570;10.986;2023-04-30T05:59:40;19.73;;;10.98;;
52136;SDS011;69622;49.570;10.986;2023-04-30T06:02:41;15.07;;;9.70;;
52136;SDS011;69622;49.570;10.986;2023-04-30T06:05:43;15.52;;;10.40;;
52136;SDS011;69622;49.570;10.986;2023-04-30T06:08:45;14.75;;;10.65;;
52136;SDS011;69622;49.570;10.986;2023-04-30T06:11:46;14.95;;;10.10;;
52136;SDS011;69622;49.570;10.986;2023-04-30T06:14:50;12.85;;;9.30;;
52136;SDS011;69622;49.570;10.986;2023-04-30T06:17:52;15.27;;;10.60;;
52136;SDS011;69622;49.570;10.986;2023-04-30T06:20:54;17.65;;;9.57;;
52136;SDS011;69622;49.570;10.986;2023-04-30T06:23:55;13.00;;;10.00;;
52136;SDS011;69622;49.570;10.986;2023-04-30T06:26:57;12.32;;;10.10;;
52136;SDS011;69622;49.570;10.986;2023-04-30T06:29:58;14.23;;;9.60;;
52136;SDS011;69622;49.570;10.986;2023-04-30T06:33:01;17.65;;;9.90;;
52136;SDS011;69622;49.570;10.986;2023-04-30T06:36:02;12.60;;;8.93;;
52136;SDS011;69622;49.570;10.986;2023-04-30T06:39:04;15.73;;;10.00;;
52136;SDS011;69622;49.570;10.986;2023-04-30T06:42:05;15.20;;;9.73;;
52136;SDS011;69622;49.570;10.986;2023-04-30T06:45:07;12.90;;;9.13;;
52136;SDS011;69622;49.570;10.986;2023-04-30T06:48:09;11.32;;;9.40;;
52136;SDS011;69622;49.570;10.986;2023-04-30T06:51:10;12.70;;;8.55;;
52136;SDS011;69622;49.570;10.986;2023-04-30T06:54:11;12.65;;;9.13;;
52136;SDS011;69622;49.570;10.986;2023-04-30T06:57:14;11.80;;;8.98;;
52136;SDS011;69622;49.570;10.986;2023-04-30T07:00:15;11.73;;;8.73;;
52136;SDS011;69622;49.570;10.986;2023-04-30T07:03:17;11.90;;;8.80;;
52136;SDS011;69622;49.570;10.986;2023-04-30T07:06:19;12.65;;;9.00;;
52136;SDS011;69622;49.570;10.986;2023-04-30T07:09:20;12.60;;;8.98;;
52136;SDS011;69622;49.570;10.986;2023-04-30T07:12:22;10.55;;;8.20;;
52136;SDS011;69622;49.570;10.986;2023-04-30T07:15:23;11.85;;;8.40;;
52136;SDS011;69622;49.570;10.986;2023-04-30T07:18:25;10.73;;;7.03;;
52136;SDS011;69622;49.570;10.986;2023-04-30T07:21:26;10.45;;;7.15;;
52136;SDS011;69622;49.570;10.986;2023-04-30T07:24:28;11.20;;;6.32;;
52136;SDS011;69622;49.570;10.986;2023-04-30T07:27:29;7.72;;;6.10;;
52136;SDS011;69622;49.570;10.986;2023-04-30T07:30:30;9.52;;;5.97;;
52136;SDS011;69622;49.570;10.986;2023-04-30T07:33:32;9.40;;;5.88;;
52136;SDS011;69622;49.570;10.986;2023-04-30T07:36:33;7.20;;;5.70;;
52136;SDS011;69622;49.570;10.986;2023-04-30T07:39:35;8.07;;;6.20;;
52136;SDS011;69622;49.570;10.986;2023-04-30T07:42:40;7.55;;;5.70;;
52136;SDS011;69622;49.570;10.986;2023-04-30T07:45:42;8.27;;;6.15;;
52136;SDS011;69622;49.570;10.986;2023-04-30T07:48:44;9.40;;;6.40;;
52136;SDS011;69622;49.570;10.986;2023-04-30T07:51:46;7.78;;;5.80;;
52136;SDS011;69622;49.570;10.986;2023-04-30T07:54:47;9.25;;;5.47;;
52136;SDS011;69622;49.570;10.986;2023-04-30T07:57:49;9.75;;;4.85;;
52136;SDS011;69622;49.570;10.986;2023-04-30T08:00:50;6.88;;;5.50;;
52136;SDS011;69622;49.570;10.986;2023-04-30T08:03:51;5.97;;;5.10;;
52136;SDS011;69622;49.570;10.986;2023-04-30T08:06:53;11.40;;;4.60;;
52136;SDS011;69622;49.570;10.986;2023-04-30T08:09:54;6.47;;;4.28;;
52136;SDS011;69622;49.570;10.986;2023-04-30T08:12:56;7.95;;;4.45;;
52136;SDS011;69622;49.570;10.986;2023-04-30T08:15:57;5.43;;;3.67;;
52136;SDS011;69622;49.570;10.986;2023-04-30T08:18:59;6.93;;;4.78;;
52136;SDS011;69622;49.570;10.986;2023-04-30T08:22:00;6.03;;;4.20;;
52136;SDS011;69622;49.570;10.986;2023-04-30T08:25:02;6.30;;;4.00;;
52136;SDS011;69622;49.570;10.986;2023-04-30T08:28:04;6.55;;;4.13;;
52136;SDS011;69622;49.570;10.986;2023-04-30T08:31:06;5.55;;;3.38;;
52136;SDS011;69622;49.570;10.986;2023-04-30T08:34:08;5.47;;;3.70;;
52136;SDS011;69622;49.570;10.986;2023-04-30T08:37:09;6.97;;;4.07;;
52136;SDS011;69622;49.570;10.986;2023-04-30T08:40:11;7.35;;;4.30;;
52136;SDS011;69622;49.570;10.986;2023-04-30T08:43:14;6.43;;;3.05;;
52136;SDS011;69622;49.570;10.986;2023-04-30T08:46:15;3.78;;;2.65;;
52136;SDS011;69622;49.570;10.986;2023-04-30T08:49:18;5.07;;;2.45;;
52136;SDS011;69622;49.570;10.986;2023-04-30T08:52:20;4.68;;;3.10;;
52136;SDS011;69622;49.570;10.986;2023-04-30T08:55:22;4.20;;;3.70;;
52136;SDS011;69622;49.570;10.986;2023-04-30T08:58:23;6.85;;;3.08;;
52136;SDS011;69622;49.570;10.986;2023-04-30T09:01:25;5.93;;;3.47;;
52136;SDS011;69622;49.570;10.986;2023-04-30T09:04:27;3.75;;;2.88;;
52136;SDS011;69622;49.570;10.986;2023-04-30T09:07:29;3.58;;;2.70;;
52136;SDS011;69622;49.570;10.986;2023-04-30T09:10:34;7.40;;;2.60;;
52136;SDS011;69622;49.570;10.986;2023-04-30T09:13:39;5.53;;;3.10;;
52136;SDS011;69622;49.570;10.986;2023-04-30T09:16:48;4.38;;;2.78;;
52136;SDS011;69622;49.570;10.986;2023-04-30T09:19:50;4.28;;;2.38;;
52136;SDS011;69622;49.570;10.986;2023-04-30T09:23:05;7.10;;;2.35;;
52136;SDS011;69622;49.570;10.986;2023-04-30T09:26:16;7.15;;;2.92;;
52136;SDS011;69622;49.570;10.986;2023-04-30T09:29:21;4.15;;;2.75;;
52136;SDS011;69622;49.570;10.986;2023-04-30T09:32:44;3.70;;;2.38;;
52136;SDS011;69622;49.570;10.986;2023-04-30T09:35:55;5.63;;;2.20;;
52136;SDS011;69622;49.570;10.986;2023-04-30T09:39:17;2.95;;;2.28;;
52136;SDS011;69622;49.570;10.986;2023-04-30T09:42:18;2.75;;;2.30;;
52136;SDS011;69622;49.570;10.986;2023-04-30T09:45:20;5.88;;;2.72;;
52136;SDS011;69622;49.570;10.986;2023-04-30T09:48:23;3.97;;;1.92;;
52136;SDS011;69622;49.570;10.986;2023-04-30T09:51:27;3.23;;;2.10;;
52136;SDS011;69622;49.570;10.986;2023-04-30T09:54:29;2.97;;;2.35;;
52136;SDS011;69622;49.570;10.986;2023-04-30T09:57:32;4.68;;;2.50;;
52136;SDS011;69622;49.570;10.986;2023-04-30T10:00:36;3.28;;;2.22;;
52136;SDS011;69622;49.570;10.986;2023-04-30T10:03:40;2.80;;;2.30;;
52136;SDS011;69622;49.570;10.986;2023-04-30T10:06:43;2.92;;;2.17;;
52136;SDS011;69622;49.570;10.986;2023-04-30T10:09:56;3.22;;;2.15;;
52136;SDS011;69622;49.570;10.986;2023-04-30T10:13:01;4.82;;;2.25;;
52136;SDS011;69622;49.570;10.986;2023-04-30T10:16:11;3.38;;;2.20;;
52136;SDS011;69622;49.570;10.986;2023-04-30T10:19:20;3.05;;;2.63;;
52136;SDS011;69622;49.570;10.986;2023-04-30T10:22:23;3.72;;;2.38;;
52136;SDS011;69622;49.570;10.986;2023-04-30T10:25:26;2.15;;;1.85;;
52136;SDS011;69622;49.570;10.986;2023-04-30T10:28:28;4.65;;;2.00;;
52136;SDS011;69622;49.570;10.986;2023-04-30T10:31:31;2.70;;;2.17;;
52136;SDS011;69622;49.570;10.986;2023-04-30T10:37:46;2.95;;;1.88;;
52136;SDS011;69622;49.570;10.986;2023-04-30T10:41:22;3.47;;;2.13;;
52136;SDS011;69622;49.570;10.986;2023-04-30T10:44:26;4.30;;;2.30;;
52136;SDS011;69622;49.570;10.986;2023-04-30T10:47:28;3.17;;;1.95;;
52136;SDS011;69622;49.570;10.986;2023-04-30T10:50:31;6.15;;;2.50;;
52136;SDS011;69622;49.570;10.986;2023-04-30T10:53:35;2.95;;;1.90;;
52136;SDS011;69622;49.570;10.986;2023-04-30T10:56:37;2.22;;;2.00;;
52136;SDS011;69622;49.570;10.986;2023-04-30T11:03:09;2.17;;;1.75;;
52136;SDS011;69622;49.570;10.986;2023-04-30T11:06:11;1.52;;;1.42;;
52136;SDS011;69622;49.570;10.986;2023-04-30T11:09:13;2.72;;;1.80;;
52136;SDS011;69622;49.570;10.986;2023-04-30T11:12:21;2.80;;;1.60;;
52136;SDS011;69622;49.570;10.986;2023-04-30T11:15:41;1.67;;;1.55;;
52136;SDS011;69622;49.570;10.986;2023-04-30T11:18:46;2.67;;;1.27;;
52136;SDS011;69622;49.570;10.986;2023-04-30T11:25:05;1.70;;;1.45;;
52136;SDS011;69622;49.570;10.986;2023-04-30T11:28:20;2.92;;;1.63;;
52136;SDS011;69622;49.570;10.986;2023-04-30T11:31:31;2.25;;;1.30;;
52136;SDS011;69622;49.570;10.986;2023-04-30T11:34:33;2.63;;;1.35;;
52136;SDS011;69622;49.570;10.986;2023-04-30T11:37:36;1.83;;;1.23;;
52136;SDS011;69622;49.570;10.986;2023-04-30T11:40:39;1.98;;;1.30;;
52136;SDS011;69622;49.570;10.986;2023-04-30T11:43:41;1.52;;;1.25;;
52136;SDS011;69622;49.570;10.986;2023-04-30T11:46:43;1.85;;;1.20;;
52136;SDS011;69622;49.570;10.986;2023-04-30T11:49:44;3.28;;;1.23;;
52136;SDS011;69622;49.570;10.986;2023-04-30T11:52:49;1.60;;;0.68;;
52136;SDS011;69622;49.570;10.986;2023-04-30T11:55:52;1.67;;;0.80;;
52136;SDS011;69622;49.570;10.986;2023-04-30T11:58:55;2.05;;;0.80;;
52136;SDS011;69622;49.570;10.986;2023-04-30T12:01:57;1.27;;;0.90;;
52136;SDS011;69622;49.570;10.986;2023-04-30T12:04:58;0.95;;;0.70;;
52136;SDS011;69622;49.570;10.986;2023-04-30T12:08:00;1.00;;;0.85;;
52136;SDS011;69622;49.570;10.986;2023-04-30T12:11:04;1.52;;;1.08;;
52136;SDS011;69622;49.570;10.986;2023-04-30T12:14:09;3.70;;;1.33;;
52136;SDS011;69622;49.570;10.986;2023-04-30T12:17:11;1.73;;;0.90;;
52136;SDS011;69622;49.570;10.986;2023-04-30T12:20:13;0.82;;;0.80;;
52136;SDS011;69622;49.570;10.986;2023-04-30T12:23:15;2.83;;;1.20;;
52136;SDS011;69622;49.570;10.986;2023-04-30T12:26:16;2.03;;;1.10;;
52136;SDS011;69622;49.570;10.986;2023-04-30T12:29:18;2.85;;;1.25;;
52136;SDS011;69622;49.570;10.986;2023-04-30T12:32:20;1.33;;;1.08;;
52136;SDS011;69622;49.570;10.986;2023-04-30T12:35:23;2.25;;;1.05;;
52136;SDS011;69622;49.570;10.986;2023-04-30T12:38:25;1.30;;;0.90;;
52136;SDS011;69622;49.570;10.986;2023-04-30T12:41:28;1.40;;;0.82;;
52136;SDS011;69622;49.570;10.986;2023-04-30T12:44:29;1.20;;;0.90;;
52136;SDS011;69622;49.570;10.986;2023-04-30T12:47:31;1.60;;;1.05;;
52136;SDS011;69622;49.570;10.986;2023-04-30T12:50:33;2.05;;;1.08;;
52136;SDS011;69622;49.570;10.986;2023-04-30T12:53:34;1.50;;;0.98;;
52136;SDS011;69622;49.570;10.986;2023-04-30T12:56:56;1.35;;;1.25;;
52136;SDS011;69622;49.570;10.986;2023-04-30T12:59:58;3.10;;;1.00;;
52136;SDS011;69622;49.570;10.986;2023-04-30T13:03:00;1.40;;;1.30;;
52136;SDS011;69622;49.570;10.986;2023-04-30T13:06:01;2.42;;;1.00;;
52136;SDS011;69622;49.570;10.986;2023-04-30T13:09:04;4.88;;;1.15;;
52136;SDS011;69622;49.570;10.986;2023-04-30T13:12:06;2.47;;;1.65;;
52136;SDS011;69622;49.570;10.986;2023-04-30T13:15:08;1.30;;;1.13;;
52136;SDS011;69622;49.570;10.986;2023-04-30T13:18:09;1.48;;;0.90;;
52136;SDS011;69622;49.570;10.986;2023-04-30T13:21:12;1.85;;;1.10;;
52136;SDS011;69622;49.570;10.986;2023-04-30T13:24:13;1.10;;;1.00;;
52136;SDS011;69622;49.570;10.986;2023-04-30T13:27:15;1.42;;;1.00;;
52136;SDS011;69622;49.570;10.986;2023-04-30T13:30:16;2.63;;;1.15;;
52136;SDS011;69622;49.570;10.986;2023-04-30T13:33:17;1.10;;;0.93;;
52136;SDS011;69622;49.570;10.986;2023-04-30T13:36:19;1.08;;;0.85;;
52136;SDS011;69622;49.570;10.986;2023-04-30T13:39:21;2.88;;;1.25;;
52136;SDS011;69622;49.570;10.986;2023-04-30T13:42:24;1.35;;;0.95;;
52136;SDS011;69622;49.570;10.986;2023-04-30T13:45:26;4.20;;;0.90;;
52136;SDS011;69622;49.570;10.986;2023-04-30T13:48:29;0.65;;;0.50;;
52136;SDS011;69622;49.570;10.986;2023-04-30T13:51:30;1.58;;;0.70;;
52136;SDS011;69622;49.570;10.986;2023-04-30T13:54:32;2.60;;;0.98;;
52136;SDS011;69622;49.570;10.986;2023-04-30T13:57:33;1.45;;;0.90;;
52136;SDS011;69622;49.570;10.986;2023-04-30T14:00:35;1.10;;;0.80;;
52136;SDS011;69622;49.570;10.986;2023-04-30T14:03:36;2.28;;;1.38;;
52136;SDS011;69622;49.570;10.986;2023-04-30T14:06:38;1.30;;;1.00;;
52136;SDS011;69622;49.570;10.986;2023-04-30T14:09:40;2.00;;;0.88;;
52136;SDS011;69622;49.570;10.986;2023-04-30T14:12:42;1.42;;;0.98;;
52136;SDS011;69622;49.570;10.986;2023-04-30T14:15:43;3.78;;;0.70;;
52136;SDS011;69622;49.570;10.986;2023-04-30T14:18:45;2.65;;;0.80;;
52136;SDS011;69622;49.570;10.986;2023-04-30T14:21:46;4.47;;;0.82;;
52136;SDS011;69622;49.570;10.986;2023-04-30T14:24:48;0.85;;;0.50;;
52136;SDS011;69622;49.570;10.986;2023-04-30T14:27:49;1.33;;;1.08;;
52136;SDS011;69622;49.570;10.986;2023-04-30T14:30:50;0.70;;;0.47;;
52136;SDS011;69622;49.570;10.986;2023-04-30T14:33:52;1.13;;;0.70;;
52136;SDS011;69622;49.570;10.986;2023-04-30T14:36:53;1.13;;;0.63;;
52136;SDS011;69622;49.570;10.986;2023-04-30T14:39:55;0.77;;;0.60;;
52136;SDS011;69622;49.570;10.986;2023-04-30T14:42:57;2.00;;;0.47;;
52136;SDS011;69622;49.570;10.986;2023-04-30T14:45:58;0.95;;;0.55;;
52136;SDS011;69622;49.570;10.986;2023-04-30T14:49:00;0.60;;;0.60;;
52136;SDS011;69622;49.570;10.986;2023-04-30T14:52:01;0.55;;;0.40;;
52136;SDS011;69622;49.570;10.986;2023-04-30T14:55:02;3.25;;;1.30;;
52136;SDS011;69622;49.570;10.986;2023-04-30T14:58:04;2.63;;;0.70;;
52136;SDS011;69622;49.570;10.986;2023-04-30T15:01:06;0.73;;;0.50;;
52136;SDS011;69622;49.570;10.986;2023-04-30T15:04:07;0.88;;;0.70;;
52136;SDS011;69622;49.570;10.986;2023-04-30T15:07:09;0.95;;;0.70;;
52136;SDS011;69622;49.570;10.986;2023-04-30T15:10:11;1.15;;;0.50;;
52136;SDS011;69622;49.570;10.986;2023-04-30T15:13:12;1.33;;;0.40;;
52136;SDS011;69622;49.570;10.986;2023-04-30T15:16:14;0.82;;;0.50;;
52136;SDS011;69622;49.570;10.986;2023-04-30T15:19:17;0.93;;;0.60;;
52136;SDS011;69622;49.570;10.986;2023-04-30T15:22:19;1.73;;;0.70;;
52136;SDS011;69622;49.570;10.986;2023-04-30T15:25:21;2.53;;;0.75;;
52136;SDS011;69622;49.570;10.986;2023-04-30T15:28:24;1.95;;;0.47;;
52136;SDS011;69622;49.570;10.986;2023-04-30T15:31:25;1.92;;;0.60;;
52136;SDS011;69622;49.570;10.986;2023-04-30T15:34:28;1.60;;;0.63;;
52136;SDS011;69622;49.570;10.986;2023-04-30T15:37:29;0.90;;;0.70;;
52136;SDS011;69622;49.570;10.986;2023-04-30T15:40:31;0.93;;;0.70;;
52136;SDS011;69622;49.570;10.986;2023-04-30T15:43:32;1.27;;;0.60;;
52136;SDS011;69622;49.570;10.986;2023-04-30T15:46:33;0.90;;;0.50;;
52136;SDS011;69622;49.570;10.986;2023-04-30T15:49:35;1.55;;;1.00;;
52136;SDS011;69622;49.570;10.986;2023-04-30T15:52:36;3.35;;;1.30;;
52136;SDS011;69622;49.570;10.986;2023-04-30T15:55:40;2.75;;;0.85;;
52136;SDS011;69622;49.570;10.986;2023-04-30T15:58:42;2.83;;;0.90;;
52136;SDS011;69622;49.570;10.986;2023-04-30T16:01:44;2.33;;;0.90;;
52136;SDS011;69622;49.570;10.986;2023-04-30T16:04:45;2.85;;;0.90;;
52136;SDS011;69622;49.570;10.986;2023-04-30T16:07:47;1.27;;;0.85;;
52136;SDS011;69622;49.570;10.986;2023-04-30T16:10:48;1.05;;;0.68;;
52136;SDS011;69622;49.570;10.986;2023-04-30T16:13:50;2.25;;;0.88;;
52136;SDS011;69622;49.570;10.986;2023-04-30T16:16:52;1.85;;;0.90;;
52136;SDS011;69622;49.570;10.986;2023-04-30T16:19:53;4.03;;;1.45;;
52136;SDS011;69622;49.570;10.986;2023-04-30T16:22:55;0.70;;;0.60;;
52136;SDS011;69622;49.570;10.986;2023-04-30T16:25:56;3.63;;;0.80;;
52136;SDS011;69622;49.570;10.986;2023-04-30T16:28:58;1.02;;;0.70;;
52136;SDS011;69622;49.570;10.986;2023-04-30T16:31:59;1.25;;;1.00;;
52136;SDS011;69622;49.570;10.986;2023-04-30T16:35:01;1.10;;;0.90;;
52136;SDS011;69622;49.570;10.986;2023-04-30T16:38:03;1.92;;;0.85;;
52136;SDS011;69622;49.570;10.986;2023-04-30T16:41:04;1.33;;;0.98;;
52136;SDS011;69622;49.570;10.986;2023-04-30T16:44:06;1.20;;;1.05;;
52136;SDS011;69622;49.570;10.986;2023-04-30T16:47:09;1.50;;;1.20;;
52136;SDS011;69622;49.570;10.986;2023-04-30T16:50:11;2.58;;;1.10;;
52136;SDS011;69622;49.570;10.986;2023-04-30T16:53:12;3.35;;;0.98;;
52136;SDS011;69622;49.570;10.986;2023-04-30T16:56:13;1.00;;;0.88;;
52136;SDS011;69622;49.570;10.986;2023-04-30T16:59:15;2.00;;;1.08;;
52136;SDS011;69622;49.570;10.986;2023-04-30T17:02:16;1.88;;;1.33;;
52136;SDS011;69622;49.570;10.986;2023-04-30T17:05:18;1.77;;;1.40;;
52136;SDS011;69622;49.570;10.986;2023-04-30T17:08:20;1.15;;;0.90;;
52136;SDS011;69622;49.570;10.986;2023-04-30T17:11:21;1.90;;;1.45;;
52136;SDS011;69622;49.570;10.986;2023-04-30T17:14:24;11.65;;;5.90;;
52136;SDS011;69622;49.570;10.986;2023-04-30T17:17:26;30.05;;;14.73;;
52136;SDS011;69622;49.570;10.986;2023-04-30T17:20:28;17.48;;;8.30;;
52136;SDS011;69622;49.570;10.986;2023-04-30T17:23:29;6.20;;;3.53;;
52136;SDS011;69622;49.570;10.986;2023-04-30T17:26:30;7.97;;;4.10;;
52136;SDS011;69622;49.570;10.986;2023-04-30T17:29:32;3.97;;;2.40;;
52136;SDS011;69622;49.570;10.986;2023-04-30T17:32:33;15.05;;;7.60;;
52136;SDS011;69622;49.570;10.986;2023-04-30T17:35:35;14.57;;;9.27;;
52136;SDS011;69622;49.570;10.986;2023-04-30T17:38:37;28.25;;;20.30;;
52136;SDS011;69622;49.570;10.986;2023-04-30T17:41:38;78.72;;;62.25;;
52136;SDS011;69622;49.570;10.986;2023-04-30T17:44:39;55.83;;;42.22;;
52136;SDS011;69622;49.570;10.986;2023-04-30T17:47:41;9.98;;;8.88;;
52136;SDS011;69622;49.570;10.986;2023-04-30T17:50:43;3.30;;;2.80;;
52136;SDS011;69622;49.570;10.986;2023-04-30T17:53:44;2.28;;;1.85;;
52136;SDS011;69622;49.570;10.986;2023-04-30T17:56:46;1.75;;;1.50;;
52136;SDS011;69622;49.570;10.986;2023-04-30T17:59:47;2.85;;;1.17;;
52136;SDS011;69622;49.570;10.986;2023-04-30T18:02:49;2.65;;;1.60;;
52136;SDS011;69622;49.570;10.986;2023-04-30T18:09:05;3.00;;;1.38;;
52136;SDS011;69622;49.570;10.986;2023-04-30T18:12:06;2.83;;;2.22;;
52136;SDS011;69622;49.570;10.986;2023-04-30T18:15:07;2.55;;;1.65;;
52136;SDS011;69622;49.570;10.986;2023-04-30T18:18:09;3.65;;;1.48;;
52136;SDS011;69622;49.570;10.986;2023-04-30T18:21:11;3.72;;;1.50;;